Time;durP1;ratioP1;P1;durP2;ratioP2;P2;SDS_P1;SDS_P2;PMS_P1;PMS_P2;Temp;Humidity;BMP_temperature;BMP_pressure;BME280_temperature;BME280_humidity;BME280_pressure;Samples;Min_cycle;Max_cycle;Signal;HPM_P1;HPM_P2
2022/04/08 00:00:32;;;;;;;2.20;1.75;;;10.90;94.80;;;;;;5073799;28;20658;-68
2022/04/08 00:02:59;;;;;;;3.33;1.45;;;10.80;94.80;;;;;;5073462;28;20298;-69
2022/04/08 00:05:26;;;;;;;8.93;1.45;;;10.90;94.70;;;;;;5073807;28;20309;-69
2022/04/08 00:07:54;;;;;;;3.30;1.40;;;10.80;94.30;;;;;;5074081;28;20221;-67
2022/04/08 00:10:21;;;;;;;3.70;1.42;;;10.80;94.20;;;;;;5074658;28;20227;-67
2022/04/08 00:12:48;;;;;;;1.45;1.27;;;10.80;94.20;;;;;;5074625;28;20202;-67
2022/04/08 00:15:15;;;;;;;2.85;1.50;;;10.90;94.30;;;;;;5074472;28;20209;-67
2022/04/08 00:17:42;;;;;;;2.20;1.75;;;10.80;93.70;;;;;;5074511;28;20576;-67
2022/04/08 00:20:09;;;;;;;3.58;1.45;;;10.80;94.20;;;;;;5074211;28;20226;-68
2022/04/08 00:22:40;;;;;;;3.40;1.40;;;10.80;93.80;;;;;;5074475;28;20207;-66
2022/04/08 00:25:09;;;;;;;2.75;1.20;;;10.80;93.60;;;;;;5074294;28;20601;-66
2022/04/08 00:27:36;;;;;;;3.38;1.40;;;10.80;93.70;;;;;;5074252;28;20211;-66
2022/04/08 00:30:04;;;;;;;3.38;1.30;;;10.80;93.60;;;;;;5074363;28;20584;-66
2022/04/08 00:32:30;;;;;;;3.50;1.23;;;10.90;93.50;;;;;;5074135;28;20203;-66
2022/04/08 00:34:59;;;;;;;3.03;1.67;;;10.80;93.20;;;;;;5073125;28;20669;-67
2022/04/08 00:37:26;;;;;;;2.90;1.52;;;10.80;92.60;;;;;;5073932;28;20309;-67
2022/04/08 00:39:53;;;;;;;2.47;1.30;;;10.90;92.50;;;;;;5074098;28;20229;-66
2022/04/08 00:42:21;;;;;;;4.57;1.40;;;10.80;92.20;;;;;;5074261;28;20234;-66
2022/04/08 00:44:47;;;;;;;3.92;1.38;;;10.70;92.60;;;;;;5074034;28;20207;-67
2022/04/08 00:47:15;;;;;;;2.30;1.45;;;10.80;92.50;;;;;;5074111;28;20205;-67
2022/04/08 00:49:42;;;;;;;2.35;1.50;;;10.80;92.50;;;;;;5074749;28;20226;-67
2022/04/08 00:52:10;;;;;;;4.30;1.60;;;10.80;92.70;;;;;;5073844;28;20214;-67
2022/04/08 00:54:38;;;;;;;2.47;1.50;;;10.90;93.10;;;;;;5073856;28;20254;-67
2022/04/08 00:57:05;;;;;;;3.40;1.67;;;10.80;92.90;;;;;;5073733;28;20203;-66
2022/04/08 00:59:34;;;;;;;3.55;1.63;;;10.80;93.30;;;;;;5073781;28;20203;-66
2022/04/08 01:02:02;;;;;;;1.88;1.58;;;10.70;93.20;;;;;;5073615;28;20205;-67
2022/04/08 01:04:29;;;;;;;2.85;1.60;;;10.70;93.00;;;;;;5073667;28;20573;-66
2022/04/08 01:06:56;;;;;;;3.17;1.45;;;10.70;93.30;;;;;;5074029;28;20198;-66
2022/04/08 01:09:24;;;;;;;1.30;1.20;;;10.70;93.30;;;;;;5073725;28;20285;-66
2022/04/08 01:11:50;;;;;;;2.85;1.40;;;10.70;93.20;;;;;;5073777;28;20203;-66
2022/04/08 01:14:18;;;;;;;3.67;1.83;;;10.70;93.40;;;;;;5073429;28;20203;-66
2022/04/08 01:16:46;;;;;;;3.53;1.65;;;10.70;94.10;;;;;;5073665;28;20580;-67
2022/04/08 01:19:13;;;;;;;2.53;1.88;;;10.70;93.80;;;;;;5073544;28;20581;-67
2022/04/08 01:21:40;;;;;;;2.97;1.23;;;10.70;93.70;;;;;;5073741;28;20218;-66
2022/04/08 01:24:12;;;;;;;1.52;1.27;;;10.70;93.60;;;;;;5073566;28;20198;-66
2022/04/08 01:26:41;;;;;;;3.15;1.60;;;10.70;93.60;;;;;;5073565;28;20561;-67
2022/04/08 01:29:08;;;;;;;2.13;1.08;;;10.70;93.90;;;;;;5073747;28;20562;-67
2022/04/08 01:31:35;;;;;;;5.10;1.38;;;10.70;93.30;;;;;;5073946;28;20558;-67
2022/04/08 01:34:02;;;;;;;3.90;1.27;;;10.60;92.60;;;;;;5073697;28;20266;-67
2022/04/08 01:36:29;;;;;;;2.45;1.38;;;10.50;92.90;;;;;;5073793;28;20203;-66
2022/04/08 01:38:55;;;;;;;5.43;1.70;;;10.60;93.10;;;;;;5073448;28;20225;-66
2022/04/08 01:41:22;;;;;;;2.95;1.00;;;10.60;92.70;;;;;;5073685;28;20222;-66
2022/04/08 01:43:50;;;;;;;2.70;1.48;;;10.50;92.80;;;;;;5073794;28;20238;-67
2022/04/08 01:46:17;;;;;;;2.67;1.27;;;10.50;92.50;;;;;;5077230;28;20206;-66
2022/04/08 01:48:44;;;;;;;2.38;1.98;;;10.50;92.70;;;;;;5077807;28;20198;-66
2022/04/08 01:51:11;;;;;;;2.17;1.35;;;10.40;92.90;;;;;;5077645;28;20317;-66
2022/04/08 01:53:38;;;;;;;4.05;1.75;;;10.40;93.30;;;;;;5077323;28;20206;-66
2022/04/08 01:56:05;;;;;;;5.05;2.00;;;10.50;93.50;;;;;;5077712;28;20206;-66
2022/04/08 01:58:32;;;;;;;4.80;1.38;;;10.50;93.50;;;;;;5077355;28;20252;-66
2022/04/08 02:01:01;;;;;;;3.83;1.60;;;10.50;93.60;;;;;;5077276;28;20225;-67
2022/04/08 02:03:28;;;;;;;4.07;1.70;;;10.50;93.80;;;;;;5077033;28;20207;-66
2022/04/08 02:05:55;;;;;;;2.72;1.40;;;10.50;93.90;;;;;;5077227;28;20199;-66
2022/04/08 02:08:22;;;;;;;4.22;1.40;;;10.50;93.90;;;;;;5077165;28;20205;-66
2022/04/08 02:10:50;;;;;;;2.67;1.50;;;10.50;93.90;;;;;;5076817;28;20222;-66
2022/04/08 02:13:17;;;;;;;1.98;1.42;;;10.40;94.40;;;;;;5076886;28;20206;-66
2022/04/08 02:15:45;;;;;;;3.17;1.80;;;10.40;94.20;;;;;;5077080;28;20207;-66
2022/04/08 02:18:14;;;;;;;2.38;1.10;;;10.40;94.10;;;;;;5076609;28;20225;-66
2022/04/08 02:20:42;;;;;;;3.45;1.40;;;10.40;94.30;;;;;;5077125;28;20268;-66
2022/04/08 02:23:09;;;;;;;4.10;1.23;;;10.30;93.70;;;;;;5076554;28;20202;-66
2022/04/08 02:25:36;;;;;;;2.90;1.20;;;10.30;93.70;;;;;;5076458;28;20203;-66
2022/04/08 02:28:03;;;;;;;5.88;1.40;;;10.20;93.50;;;;;;5076470;28;20207;-66
2022/04/08 02:30:31;;;;;;;3.33;1.50;;;10.10;93.30;;;;;;5076475;28;20232;-66
2022/04/08 02:33:01;;;;;;;6.07;1.50;;;10.20;93.70;;;;;;5076791;28;20218;-68
2022/04/08 02:35:29;;;;;;;5.40;1.63;;;10.10;93.70;;;;;;5076641;28;20199;-66
2022/04/08 02:37:56;;;;;;;2.45;1.38;;;10.10;94.20;;;;;;5076759;28;20688;-66
2022/04/08 02:40:23;;;;;;;1.90;1.65;;;10.20;94.50;;;;;;5076675;28;20644;-67
2022/04/08 02:42:50;;;;;;;2.40;1.25;;;10.20;94.30;;;;;;5076879;28;20210;-66
2022/04/08 02:45:17;;;;;;;4.03;1.42;;;10.20;94.00;;;;;;5076468;28;20203;-66
2022/04/08 02:47:45;;;;;;;5.55;1.80;;;10.20;94.00;;;;;;5076669;28;20206;-67
2022/04/08 02:50:12;;;;;;;2.50;2.00;;;10.20;94.40;;;;;;5076262;28;20219;-66
2022/04/08 02:52:40;;;;;;;9.18;2.40;;;10.20;94.60;;;;;;5076117;28;20233;-66
2022/04/08 02:55:08;;;;;;;1.75;1.17;;;10.10;94.40;;;;;;5076038;28;20214;-67
2022/04/08 02:57:44;;;;;;;3.15;1.20;;;10.20;94.40;;;;;;5075657;28;20199;-66
2022/04/08 03:00:12;;;;;;;3.22;1.88;;;10.20;94.40;;;;;;5076350;28;20218;-66
2022/04/08 03:02:39;;;;;;;3.28;1.40;;;10.20;94.50;;;;;;5076357;28;20209;-66
2022/04/08 03:05:07;;;;;;;2.08;1.30;;;10.20;95.10;;;;;;5076085;28;20210;-66
2022/04/08 03:07:34;;;;;;;1.92;1.60;;;10.30;95.10;;;;;;5076307;28;20210;-66
2022/04/08 03:10:04;;;;;;;3.00;2.13;;;10.30;94.70;;;;;;5075852;28;20348;-67
2022/04/08 03:12:31;;;;;;;3.72;1.58;;;10.30;95.00;;;;;;5075760;28;20206;-66
2022/04/08 03:14:57;;;;;;;3.28;2.03;;;10.30;95.00;;;;;;5075863;28;20572;-66
2022/04/08 03:17:24;;;;;;;2.72;1.70;;;10.30;94.70;;;;;;5075925;28;20199;-66
2022/04/08 03:19:51;;;;;;;4.20;1.38;;;10.40;95.40;;;;;;5075699;28;20231;-66
2022/04/08 03:22:20;;;;;;;5.10;1.73;;;10.40;95.60;;;;;;5075704;28;20297;-66
2022/04/08 03:24:47;;;;;;;3.47;1.50;;;10.40;95.00;;;;;;5075679;28;20289;-66
2022/04/08 03:27:15;;;;;;;2.53;1.70;;;10.40;94.50;;;;;;5075717;28;20210;-67
2022/04/08 03:29:43;;;;;;;4.80;1.88;;;10.40;94.40;;;;;;5075675;28;20295;-66
2022/04/08 03:32:10;;;;;;;5.32;2.53;;;10.30;94.20;;;;;;5076039;28;20657;-66
2022/04/08 03:34:37;;;;;;;1.80;1.70;;;10.20;93.90;;;;;;5075701;28;20207;-67
2022/04/08 03:37:04;;;;;;;1.60;1.27;;;10.20;93.70;;;;;;5075766;28;20568;-66
2022/04/08 03:39:31;;;;;;;2.25;1.58;;;10.10;93.80;;;;;;5075347;28;20230;-66
2022/04/08 03:41:58;;;;;;;2.90;1.73;;;10.10;94.20;;;;;;5075735;28;20198;-66
2022/04/08 03:44:26;;;;;;;2.50;1.50;;;10.00;93.50;;;;;;5075475;28;20209;-66
2022/04/08 03:46:53;;;;;;;2.95;1.40;;;9.80;93.90;;;;;;5075659;28;20211;-66
2022/04/08 03:49:21;;;;;;;4.32;1.40;;;9.80;94.00;;;;;;5075595;28;20206;-67
2022/04/08 03:51:48;;;;;;;2.95;1.50;;;9.80;94.10;;;;;;5075460;28;20252;-66
2022/04/08 03:54:15;;;;;;;3.92;1.77;;;9.80;93.90;;;;;;5075003;28;20202;-66
2022/04/08 03:56:43;;;;;;;3.30;1.75;;;9.80;93.70;;;;;;5075392;28;20230;-66
2022/04/08 03:59:11;;;;;;;7.32;1.83;;;9.90;94.00;;;;;;5074945;28;20233;-66
2022/04/08 04:01:39;;;;;;;3.40;1.38;;;9.90;93.70;;;;;;5074739;28;20230;-66
2022/04/08 04:04:06;;;;;;;3.00;1.60;;;9.90;93.60;;;;;;5074970;28;20538;-66
2022/04/08 04:06:33;;;;;;;2.92;1.30;;;9.90;93.60;;;;;;5075353;28;20205;-66
2022/04/08 04:09:00;;;;;;;3.67;1.67;;;9.90;93.20;;;;;;5073806;28;20298;-66
2022/04/08 04:11:26;;;;;;;6.15;3.80;;;9.90;93.80;;;;;;5074263;28;20713;-66
2022/04/08 04:13:53;;;;;;;3.97;1.70;;;9.80;93.00;;;;;;5074304;28;20209;-66
2022/04/08 04:16:20;;;;;;;3.50;1.40;;;9.80;92.80;;;;;;5074414;28;20245;-66
2022/04/08 04:18:48;;;;;;;4.57;1.65;;;9.80;93.50;;;;;;5074406;28;20227;-66
2022/04/08 04:21:15;;;;;;;1.40;1.30;;;9.90;93.30;;;;;;5074509;28;20784;-66
2022/04/08 04:23:42;;;;;;;2.88;0.95;;;9.90;92.90;;;;;;5074256;28;20207;-66
2022/04/08 04:26:09;;;;;;;3.22;2.60;;;9.90;92.50;;;;;;5074411;28;20205;-66
2022/04/08 04:28:36;;;;;;;2.15;1.55;;;9.80;92.60;;;;;;5074385;28;20297;-66
2022/04/08 04:31:12;;;;;;;5.15;1.73;;;9.70;92.90;;;;;;5111565;27;20645;-65
2022/04/08 04:33:38;;;;;;;4.80;1.40;;;9.60;92.90;;;;;;5111415;28;20231;-65
2022/04/08 04:36:05;;;;;;;1.67;1.45;;;9.70;93.20;;;;;;5111950;28;20296;-65
2022/04/08 04:38:32;;;;;;;1.92;1.35;;;9.70;92.80;;;;;;5111461;28;20214;-65
2022/04/08 04:40:59;;;;;;;3.08;1.65;;;9.70;93.30;;;;;;5111605;28;20583;-65
2022/04/08 04:43:26;;;;;;;3.22;1.40;;;9.70;93.10;;;;;;5111309;28;20198;-65
2022/04/08 04:45:52;;;;;;;2.63;1.48;;;9.70;93.20;;;;;;5111696;28;20207;-65
2022/04/08 04:48:22;;;;;;;3.78;1.50;;;9.80;93.20;;;;;;5111990;28;20206;-65
2022/04/08 04:50:49;;;;;;;2.70;1.60;;;9.80;93.10;;;;;;5111567;28;20280;-65
2022/04/08 04:53:16;;;;;;;2.55;1.50;;;9.80;93.30;;;;;;5111425;28;20201;-65
2022/04/08 04:55:43;;;;;;;3.53;1.45;;;9.90;93.40;;;;;;5111239;28;20205;-65
2022/04/08 04:58:10;;;;;;;2.05;1.35;;;9.90;93.80;;;;;;5111779;28;20201;-65
2022/04/08 05:00:37;;;;;;;3.50;1.58;;;9.90;93.60;;;;;;5111278;28;20224;-65
2022/04/08 05:03:05;;;;;;;4.50;1.50;;;9.90;93.30;;;;;;5111684;28;20599;-65
2022/04/08 05:05:33;;;;;;;6.07;3.03;;;9.90;93.50;;;;;;5111395;28;20207;-65
2022/04/08 05:08:02;;;;;;;5.43;2.30;;;10.00;92.70;;;;;;5111156;28;20197;-65
2022/04/08 05:10:29;;;;;;;3.13;1.40;;;10.00;93.00;;;;;;5111274;28;20591;-65
2022/04/08 05:12:56;;;;;;;2.10;1.48;;;10.00;92.90;;;;;;5111068;28;20236;-66
2022/04/08 05:15:23;;;;;;;2.85;1.58;;;10.00;92.70;;;;;;5110802;28;20201;-65
2022/04/08 05:17:50;;;;;;;3.58;1.65;;;10.10;93.00;;;;;;5110687;28;20292;-65
2022/04/08 05:20:17;;;;;;;2.45;1.20;;;10.10;93.10;;;;;;5110574;28;20225;-65
2022/04/08 05:22:45;;;;;;;2.30;1.45;;;10.10;93.70;;;;;;5110762;28;20540;-65
2022/04/08 05:25:11;;;;;;;2.60;1.45;;;10.10;93.50;;;;;;5110807;28;20197;-65
2022/04/08 05:27:39;;;;;;;3.22;1.48;;;10.10;93.20;;;;;;5110685;28;20205;-65
2022/04/08 05:30:08;;;;;;;3.85;1.80;;;10.10;92.80;;;;;;5110281;28;20231;-65
2022/04/08 05:32:35;;;;;;;12.40;7.45;;;10.10;93.20;;;;;;5110618;28;20197;-65
2022/04/08 05:35:02;;;;;;;4.07;1.50;;;10.20;93.60;;;;;;5110359;28;20205;-65
2022/04/08 05:37:29;;;;;;;2.30;1.67;;;10.20;93.60;;;;;;5110337;28;20201;-65
2022/04/08 05:39:57;;;;;;;2.15;1.30;;;10.20;93.10;;;;;;5110462;28;20218;-65
2022/04/08 05:42:24;;;;;;;5.60;2.00;;;10.20;93.00;;;;;;5098039;28;20206;-65
2022/04/08 05:44:51;;;;;;;1.95;1.30;;;10.20;93.10;;;;;;5096713;28;20204;-65
2022/04/08 05:47:18;;;;;;;6.82;1.70;;;10.30;93.20;;;;;;5096927;28;20564;-65
2022/04/08 05:49:44;;;;;;;1.83;1.38;;;10.30;93.40;;;;;;5096636;28;20225;-65
2022/04/08 05:52:12;;;;;;;1.75;1.50;;;10.30;93.60;;;;;;5096749;28;20206;-65
2022/04/08 05:54:38;;;;;;;3.42;1.80;;;10.40;93.80;;;;;;5096476;28;20297;-65
2022/04/08 05:57:07;;;;;;;2.35;1.50;;;10.40;94.10;;;;;;5096937;28;20652;-65
2022/04/08 05:59:37;;;;;;;3.90;1.80;;;10.50;94.20;;;;;;5096328;28;20285;-65
2022/04/08 06:02:05;;;;;;;2.60;1.55;;;10.50;94.70;;;;;;5096442;28;20202;-65
2022/04/08 06:04:32;;;;;;;5.90;1.45;;;10.50;94.90;;;;;;5096030;28;20661;-65
2022/04/08 06:06:58;;;;;;;2.78;1.70;;;10.60;96.20;;;;;;5096750;28;20244;-65
2022/04/08 06:09:25;;;;;;;5.22;1.83;;;10.50;97.50;;;;;;5095892;28;20198;-65
2022/04/08 06:11:52;;;;;;;9.05;5.35;;;10.50;97.00;;;;;;5096124;28;20313;-65
2022/04/08 06:14:20;;;;;;;2.97;1.50;;;10.40;96.90;;;;;;5095700;28;20208;-65
2022/04/08 06:16:47;;;;;;;4.35;1.77;;;10.30;96.50;;;;;;5096260;28;20202;-65
2022/04/08 06:19:14;;;;;;;1.92;1.55;;;10.30;97.50;;;;;;5096545;28;20293;-65
2022/04/08 06:21:40;;;;;;;6.20;1.50;;;10.20;97.70;;;;;;5096388;28;20214;-65
2022/04/08 06:24:08;;;;;;;2.38;1.45;;;10.10;96.80;;;;;;5095852;28;20202;-65
2022/04/08 06:26:36;;;;;;;2.28;1.80;;;10.00;97.60;;;;;;5096029;28;20198;-65
2022/04/08 06:29:04;;;;;;;2.58;1.25;;;9.90;99.00;;;;;;5095767;28;20214;-65
2022/04/08 06:31:32;;;;;;;2.55;1.67;;;9.90;98.70;;;;;;5095952;28;20237;-65
2022/04/08 06:34:00;;;;;;;4.93;1.80;;;9.90;99.60;;;;;;5095690;28;20676;-65
2022/04/08 06:36:27;;;;;;;2.72;1.17;;;9.90;99.80;;;;;;5095942;28;20202;-65
2022/04/08 06:38:54;;;;;;;2.22;1.60;;;9.90;99.90;;;;;;5096007;28;20739;-65
2022/04/08 06:41:22;;;;;;;2.97;1.27;;;9.80;99.90;;;;;;5095793;28;20214;-65
2022/04/08 06:43:48;;;;;;;5.57;1.65;;;9.90;99.90;;;;;;5095564;28;20208;-65
2022/04/08 06:46:15;;;;;;;8.20;4.22;;;9.80;99.90;;;;;;5096032;28;20202;-65
2022/04/08 06:48:43;;;;;;;3.17;2.13;;;9.80;99.90;;;;;;5095788;28;20202;-65
2022/04/08 06:51:10;;;;;;;1.90;1.30;;;9.80;99.90;;;;;;5095503;28;20222;-65
2022/04/08 06:53:38;;;;;;;1.92;1.40;;;9.80;99.90;;;;;;5094629;28;20202;-65
2022/04/08 06:56:05;;;;;;;4.72;1.98;;;9.80;99.90;;;;;;5095675;28;20276;-65
2022/04/08 06:58:38;;;;;;;3.10;1.65;;;9.80;99.90;;;;;;5095986;28;20202;-65
2022/04/08 07:01:06;;;;;;;2.90;1.50;;;9.80;99.90;;;;;;5095521;28;20222;-65
2022/04/08 07:03:33;;;;;;;2.55;1.40;;;9.80;99.90;;;;;;5094970;28;20256;-65
2022/04/08 07:06:01;;;;;;;2.35;1.52;;;9.70;99.90;;;;;;5094953;28;20748;-65
2022/04/08 07:08:27;;;;;;;5.57;3.35;;;9.60;99.90;;;;;;5094973;28;20292;-65
2022/04/08 07:10:54;;;;;;;4.60;2.42;;;9.50;99.90;;;;;;5094574;28;20237;-65
2022/04/08 07:13:21;;;;;;;2.67;1.45;;;9.40;99.90;;;;;;5094789;28;20594;-64
2022/04/08 07:15:48;;;;;;;3.00;1.58;;;9.40;99.90;;;;;;5095097;28;20209;-65
2022/04/08 07:18:15;;;;;;;2.45;1.50;;;9.30;99.90;;;;;;5095380;28;20204;-65
2022/04/08 07:20:41;;;;;;;3.38;1.20;;;9.20;99.90;;;;;;5095051;28;20624;-65
2022/04/08 07:23:09;;;;;;;2.60;1.40;;;9.10;99.90;;;;;;5095031;28;20204;-65
2022/04/08 07:25:36;;;;;;;5.25;1.70;;;9.10;99.90;;;;;;5095003;28;20679;-65
2022/04/08 07:28:04;;;;;;;2.53;1.50;;;9.10;99.90;;;;;;5095221;28;20618;-65
2022/04/08 07:30:31;;;;;;;2.65;1.38;;;9.10;99.90;;;;;;5094676;28;20316;-66
2022/04/08 07:33:00;;;;;;;1.42;1.33;;;9.10;99.90;;;;;;5094822;28;20198;-64
2022/04/08 07:35:27;;;;;;;4.10;1.60;;;9.10;99.90;;;;;;5094960;28;20301;-65
2022/04/08 07:37:54;;;;;;;2.85;1.30;;;9.20;99.90;;;;;;5094863;28;20301;-66
2022/04/08 07:40:22;;;;;;;3.38;1.67;;;9.30;99.90;;;;;;5094878;28;20257;-66
2022/04/08 07:42:49;;;;;;;2.75;1.35;;;9.30;99.90;;;;;;5094922;28;20202;-65
2022/04/08 07:45:17;;;;;;;1.45;1.10;;;9.30;99.90;;;;;;5094760;28;20206;-65
2022/04/08 07:47:43;;;;;;;2.60;2.10;;;9.30;99.90;;;;;;5094891;28;20217;-65
2022/04/08 07:50:12;;;;;;;2.50;1.40;;;9.20;99.90;;;;;;5094709;28;20230;-65
2022/04/08 07:52:39;;;;;;;1.48;1.17;;;9.20;99.90;;;;;;5094729;28;20232;-66
2022/04/08 07:55:07;;;;;;;1.48;1.33;;;9.30;99.90;;;;;;5094900;28;20198;-66
2022/04/08 07:57:44;;;;;;;3.60;2.75;;;9.30;99.90;;;;;;5094684;28;20212;-66
2022/04/08 08:00:12;;;;;;;4.43;2.05;;;9.50;99.90;;;;;;5083267;28;20583;-67
2022/04/08 08:02:39;;;;;;;1.88;1.23;;;9.60;99.90;;;;;;5075083;28;20604;-66
2022/04/08 08:05:07;;;;;;;3.30;1.70;;;9.60;99.90;;;;;;5072214;28;20661;-69
2022/04/08 08:07:44;;;;;;;1.85;1.05;;;9.70;99.90;;;;;;5072927;28;20217;-67
2022/04/08 08:10:14;;;;;;;1.20;1.10;;;9.80;99.90;;;;;;5072699;28;20680;-71
2022/04/08 08:12:42;;;;;;;2.88;1.30;;;9.80;99.90;;;;;;5072510;28;20217;-70
2022/04/08 08:15:10;;;;;;;1.38;1.00;;;9.90;99.90;;;;;;5072036;28;20225;-68
2022/04/08 08:17:38;;;;;;;3.17;1.27;;;10.00;99.90;;;;;;5072460;28;20213;-69
2022/04/08 08:20:06;;;;;;;1.05;1.05;;;10.00;99.90;;;;;;5072636;28;20222;-69
2022/04/08 08:22:33;;;;;;;1.60;1.50;;;10.10;99.90;;;;;;5072760;28;20238;-68
2022/04/08 08:25:00;;;;;;;2.08;1.50;;;10.10;99.90;;;;;;5072184;28;20664;-68
2022/04/08 08:27:27;;;;;;;1.92;1.30;;;10.10;99.90;;;;;;5072313;28;20576;-69
2022/04/08 08:29:55;;;;;;;2.03;1.60;;;10.20;99.90;;;;;;5072007;28;20391;-69
2022/04/08 08:32:22;;;;;;;1.33;1.10;;;10.20;99.90;;;;;;5072383;28;20696;-69
2022/04/08 08:34:48;;;;;;;3.13;1.55;;;10.30;99.90;;;;;;5072230;28;20203;-68
2022/04/08 08:37:15;;;;;;;1.20;1.10;;;10.30;99.90;;;;;;5072228;28;20293;-68
2022/04/08 08:39:42;;;;;;;4.10;3.10;;;10.30;99.90;;;;;;5072084;28;20223;-68
2022/04/08 08:42:10;;;;;;;1.42;1.33;;;10.40;99.90;;;;;;5072718;28;20300;-68
2022/04/08 08:44:36;;;;;;;1.40;0.90;;;10.30;99.90;;;;;;5072200;28;20628;-68
2022/04/08 08:47:11;;;;;;;1.65;1.25;;;10.20;99.90;;;;;;5072089;28;20394;-68
2022/04/08 08:49:39;;;;;;;1.30;1.20;;;10.30;99.90;;;;;;5071932;28;20293;-69
2022/04/08 08:52:09;;;;;;;2.50;1.85;;;10.40;99.90;;;;;;5072044;28;20230;-68
2022/04/08 08:54:36;;;;;;;3.50;1.00;;;10.40;99.90;;;;;;5072403;28;20203;-68
2022/04/08 08:57:03;;;;;;;0.90;0.90;;;10.40;99.90;;;;;;5072132;28;20665;-69
2022/04/08 08:59:30;;;;;;;2.58;1.15;;;10.30;99.90;;;;;;5072215;28;20237;-68
2022/04/08 09:02:01;;;;;;;1.80;1.52;;;10.20;99.90;;;;;;5072096;28;20205;-68
2022/04/08 09:04:30;;;;;;;1.90;1.70;;;10.10;99.90;;;;;;5072077;28;20206;-68
2022/04/08 09:06:57;;;;;;;1.73;1.50;;;10.10;99.90;;;;;;5072345;28;20203;-69
2022/04/08 09:09:31;;;;;;;1.42;1.25;;;10.00;99.90;;;;;;5071721;28;20206;-68
2022/04/08 09:11:58;;;;;;;1.30;1.08;;;10.00;99.90;;;;;;5072153;28;20230;-69
2022/04/08 09:14:30;;;;;;;1.23;1.10;;;10.10;99.90;;;;;;5072102;28;20664;-69
2022/04/08 09:17:02;;;;;;;2.55;1.50;;;9.90;99.90;;;;;;5074252;28;20209;-69
2022/04/08 09:19:34;;;;;;;1.25;1.00;;;10.10;99.90;;;;;;5075613;28;20203;-69
2022/04/08 09:22:01;;;;;;;1.20;0.90;;;10.10;99.90;;;;;;5076056;28;20183;-68
2022/04/08 09:24:28;;;;;;;1.48;1.38;;;10.10;99.90;;;;;;5075786;28;20199;-68
2022/04/08 09:26:56;;;;;;;1.88;1.13;;;10.00;99.90;;;;;;5075368;28;20203;-68
2022/04/08 09:29:23;;;;;;;1.10;1.00;;;10.00;99.90;;;;;;5075595;28;20301;-69
2022/04/08 09:31:51;;;;;;;1.38;1.23;;;10.10;99.90;;;;;;5075502;28;20229;-68
2022/04/08 09:34:20;;;;;;;1.77;1.30;;;10.10;99.90;;;;;;5075483;28;20268;-68
2022/04/08 09:36:48;;;;;;;4.63;1.35;;;9.90;99.90;;;;;;5075440;28;20209;-68
2022/04/08 09:39:16;;;;;;;1.20;1.10;;;9.90;99.90;;;;;;5075426;28;20203;-68
2022/04/08 09:41:44;;;;;;;1.23;1.13;;;9.90;99.90;;;;;;5075027;28;20222;-68
2022/04/08 09:44:13;;;;;;;1.30;1.20;;;9.90;99.90;;;;;;5074630;28;20209;-69
2022/04/08 09:46:40;;;;;;;1.10;1.00;;;9.90;99.90;;;;;;5074911;28;20207;-70
2022/04/08 09:49:08;;;;;;;1.40;1.30;;;10.00;99.90;;;;;;5075118;28;20207;-69
2022/04/08 09:51:38;;;;;;;1.40;1.30;;;10.00;99.90;;;;;;5074874;28;20237;-69
2022/04/08 09:54:07;;;;;;;2.67;2.33;;;10.00;99.90;;;;;;5074498;28;20550;-69
2022/04/08 09:56:35;;;;;;;2.13;1.40;;;9.90;99.90;;;;;;5074630;28;20284;-70
2022/04/08 09:59:05;;;;;;;1.73;0.90;;;9.90;99.90;;;;;;5074629;28;20203;-69
2022/04/08 10:01:32;;;;;;;2.00;1.20;;;9.90;99.90;;;;;;5074120;28;20221;-70
2022/04/08 10:04:00;;;;;;;1.27;1.17;;;9.90;99.90;;;;;;5074569;28;20202;-70
2022/04/08 10:06:28;;;;;;;1.25;1.00;;;9.90;99.90;;;;;;5074607;28;20224;-69
2022/04/08 10:08:55;;;;;;;3.47;1.30;;;9.80;99.90;;;;;;5075931;28;20297;-69
2022/04/08 10:11:29;;;;;;;1.10;1.10;;;9.70;99.90;;;;;;5075960;28;20222;-68
2022/04/08 10:14:09;;;;;;;1.17;0.90;;;9.90;99.90;;;;;;5075647;28;20205;-68
2022/04/08 10:16:39;;;;;;;1.75;1.10;;;10.00;99.90;;;;;;5075618;28;20206;-68
2022/04/08 10:19:07;;;;;;;1.00;1.00;;;9.80;99.90;;;;;;5075748;28;20565;-68
2022/04/08 10:21:38;;;;;;;1.77;0.98;;;9.80;99.90;;;;;;5075389;28;20231;-68
2022/04/08 10:24:13;;;;;;;3.60;1.38;;;9.60;99.90;;;;;;5075301;28;20756;-68
2022/04/08 10:26:57;;;;;;;2.78;1.20;;;9.80;99.90;;;;;;5075482;28;20198;-68
2022/04/08 10:29:24;;;;;;;1.50;1.25;;;9.80;99.90;;;;;;5075695;28;20218;-68
2022/04/08 10:31:56;;;;;;;1.23;1.02;;;9.90;99.90;;;;;;5075294;28;20218;-67
2022/04/08 10:34:24;;;;;;;1.48;1.38;;;10.00;99.90;;;;;;5075101;28;20203;-68
2022/04/08 10:36:52;;;;;;;2.15;1.70;;;9.80;99.90;;;;;;5074547;28;20923;-72
2022/04/08 10:39:21;;;;;;;1.35;1.25;;;9.60;99.90;;;;;;5075374;28;20234;-68
2022/04/08 10:41:49;;;;;;;1.23;1.13;;;9.40;99.90;;;;;;5075070;28;20289;-67
2022/04/08 10:44:30;;;;;;;1.10;1.00;;;9.10;99.90;;;;;;5083157;28;20208;-69
2022/04/08 10:46:59;;;;;;;1.80;1.20;;;8.90;99.90;;;;;;5074162;28;20258;-68
2022/04/08 10:49:26;;;;;;;1.60;1.40;;;8.70;99.90;;;;;;5074887;28;20202;-69
2022/04/08 10:51:53;;;;;;;1.75;1.33;;;8.60;99.90;;;;;;5075055;28;20226;-69
2022/04/08 10:54:21;;;;;;;2.58;1.77;;;8.70;99.90;;;;;;5074872;28;20372;-69
2022/04/08 10:56:57;;;;;;;2.35;1.60;;;8.80;99.90;;;;;;5074996;28;20233;-69
2022/04/08 10:59:29;;;;;;;1.58;1.48;;;9.00;99.90;;;;;;5074909;28;20210;-69
2022/04/08 11:02:02;;;;;;;2.42;1.65;;;8.90;99.90;;;;;;5074994;28;20549;-68
2022/04/08 11:04:30;;;;;;;1.88;1.40;;;9.00;99.90;;;;;;5074458;28;20653;-68
2022/04/08 11:06:57;;;;;;;1.42;1.33;;;9.00;99.90;;;;;;5074588;28;20209;-68
2022/04/08 11:09:27;;;;;;;2.90;2.05;;;9.00;99.90;;;;;;5074674;28;20572;-68
2022/04/08 11:11:53;;;;;;;1.48;1.38;;;8.90;99.90;;;;;;5074704;28;20227;-68
2022/04/08 11:14:21;;;;;;;2.05;1.85;;;8.90;99.90;;;;;;5074245;28;20253;-68
2022/04/08 11:16:50;;;;;;;1.50;1.40;;;9.00;99.90;;;;;;5075036;28;20202;-68
2022/04/08 11:19:17;;;;;;;2.83;1.80;;;9.00;99.90;;;;;;5074235;28;20207;-68
2022/04/08 11:21:44;;;;;;;3.20;2.80;;;8.80;99.90;;;;;;5074447;28;20219;-68
2022/04/08 11:24:13;;;;;;;3.28;3.08;;;8.80;99.90;;;;;;5074130;28;20211;-68
2022/04/08 11:26:44;;;;;;;1.40;1.30;;;9.00;99.90;;;;;;5074384;28;20202;-68
2022/04/08 11:29:14;;;;;;;1.08;1.05;;;8.90;99.90;;;;;;5074167;28;20999;-68
2022/04/08 11:31:41;;;;;;;1.75;1.33;;;8.70;99.90;;;;;;5074213;28;20623;-68
2022/04/08 11:34:09;;;;;;;1.85;1.30;;;8.50;99.90;;;;;;5074101;28;20199;-68
2022/04/08 11:36:37;;;;;;;2.00;1.90;;;8.20;99.90;;;;;;5074131;28;20294;-68
2022/04/08 11:39:05;;;;;;;1.88;1.75;;;8.20;99.90;;;;;;5073593;28;20577;-68
2022/04/08 11:41:32;;;;;;;6.22;4.82;;;8.10;99.90;;;;;;5073967;28;20641;-68
2022/04/08 11:43:59;;;;;;;2.47;2.15;;;7.90;99.90;;;;;;5073898;28;20202;-68
2022/04/08 11:46:26;;;;;;;3.65;2.20;;;8.00;99.90;;;;;;5074059;28;20577;-68
2022/04/08 11:48:53;;;;;;;2.40;2.03;;;8.10;99.90;;;;;;5073889;28;20687;-68
2022/04/08 11:51:22;;;;;;;2.42;2.22;;;8.10;99.90;;;;;;5073922;28;20226;-68
2022/04/08 11:53:50;;;;;;;1.85;1.73;;;8.20;99.90;;;;;;5073750;28;20199;-68
2022/04/08 11:56:22;;;;;;;2.53;2.30;;;8.00;99.90;;;;;;5073628;28;20650;-68
2022/04/08 11:58:56;;;;;;;3.55;1.90;;;8.10;99.90;;;;;;5073855;28;20203;-68
2022/04/08 12:01:23;;;;;;;2.97;2.60;;;8.30;99.90;;;;;;5073866;28;20223;-68
2022/04/08 12:03:51;;;;;;;3.15;2.30;;;8.30;99.90;;;;;;5073533;28;20202;-68
2022/04/08 12:06:19;;;;;;;2.60;2.20;;;8.40;99.90;;;;;;5073754;28;20202;-68
2022/04/08 12:08:47;;;;;;;2.53;2.33;;;8.60;99.90;;;;;;5073702;28;20284;-68
2022/04/08 12:11:15;;;;;;;3.00;2.03;;;8.70;99.90;;;;;;5073365;28;20305;-68
2022/04/08 12:13:43;;;;;;;2.10;2.00;;;9.00;99.90;;;;;;5073488;28;20563;-68
2022/04/08 12:16:12;;;;;;;2.50;2.20;;;8.70;99.90;;;;;;5073530;28;20202;-68
2022/04/08 12:18:48;;;;;;;3.78;2.20;;;8.50;99.90;;;;;;5073643;28;20206;-68
2022/04/08 12:21:21;;;;;;;2.38;1.90;;;8.40;99.90;;;;;;5073367;28;20230;-68
2022/04/08 12:23:50;;;;;;;2.30;2.10;;;8.40;99.90;;;;;;5073220;28;20673;-68
2022/04/08 12:26:19;;;;;;;2.38;1.83;;;8.40;99.90;;;;;;5073422;28;20256;-68
2022/04/08 12:28:47;;;;;;;4.13;2.15;;;8.20;99.90;;;;;;5073412;28;20203;-68
2022/04/08 12:31:15;;;;;;;3.67;3.38;;;8.20;99.90;;;;;;5073481;28;20232;-68
2022/04/08 12:33:42;;;;;;;2.50;2.30;;;8.20;99.90;;;;;;5073180;28;20199;-68
2022/04/08 12:36:10;;;;;;;2.85;2.65;;;8.10;99.90;;;;;;5073491;28;20207;-68
2022/04/08 12:38:38;;;;;;;2.92;2.72;;;8.10;99.90;;;;;;5073506;28;20207;-68
2022/04/08 12:41:07;;;;;;;3.67;3.38;;;8.00;99.90;;;;;;5073442;28;20694;-68
2022/04/08 12:43:34;;;;;;;1.70;1.60;;;8.10;99.90;;;;;;5073141;28;20195;-68
2022/04/08 12:46:01;;;;;;;1.90;1.80;;;8.20;99.90;;;;;;5073359;28;20309;-68
2022/04/08 12:48:28;;;;;;;2.70;2.08;;;8.20;99.90;;;;;;5073371;28;20202;-68
2022/04/08 12:50:57;;;;;;;2.25;1.65;;;8.20;99.90;;;;;;5073811;28;20643;-68
2022/04/08 12:53:24;;;;;;;1.73;1.52;;;8.20;99.90;;;;;;5077086;28;20226;-68
2022/04/08 12:55:51;;;;;;;4.28;1.70;;;8.20;99.90;;;;;;5077295;28;20209;-68